createdAt,value
2018-09-19T00:03:36.061Z,1009.99
2018-09-19T00:08:32.772Z,1009.97
2018-09-19T00:13:28.031Z,1010.10
2018-09-19T00:18:24.063Z,1010.02
2018-09-19T00:23:20.008Z,1010.01
2018-09-19T00:28:16.140Z,1010.05
2018-09-19T00:33:12.726Z,1010.10
2018-09-19T00:38:09.539Z,1010.08
2018-09-19T00:43:06.292Z,1010.16
2018-09-19T00:48:01.922Z,1010.20
2018-09-19T00:52:58.006Z,1010.18
2018-09-19T00:57:54.131Z,1010.15
2018-09-19T01:02:50.542Z,1010.13
2018-09-19T01:07:46.394Z,1010.19
2018-09-19T01:12:42.430Z,1010.38
2018-09-19T01:17:39.303Z,1010.34
2018-09-19T01:22:34.719Z,1010.35
2018-09-19T01:27:30.791Z,1010.45
2018-09-19T01:32:28.146Z,1010.47
2018-09-19T01:37:23.986Z,1010.54
2018-09-19T01:42:19.895Z,1010.54
2018-09-19T01:47:15.710Z,1010.64
2018-09-19T01:52:12.281Z,1010.66
2018-09-19T01:57:08.153Z,1010.81
2018-09-19T02:02:04.086Z,1010.76
2018-09-19T02:06:59.741Z,1010.88
2018-09-19T02:16:56.082Z,1010.76
2018-09-19T02:21:52.185Z,1010.73
2018-09-19T02:26:48.531Z,1010.87
2018-09-19T02:31:44.137Z,1010.87
2018-09-19T02:36:39.932Z,1010.83
2018-09-19T02:41:36.048Z,1010.80
2018-09-19T02:46:31.571Z,1010.78
2018-09-19T02:51:27.646Z,1010.87
2018-09-19T02:56:23.569Z,1010.82
2018-09-19T03:01:20.345Z,1010.88
2018-09-19T03:06:15.826Z,1010.91
2018-09-19T03:11:11.996Z,1010.95
2018-09-19T03:16:07.914Z,1010.85
2018-09-19T03:21:03.810Z,1010.84
2018-09-19T03:25:59.630Z,1010.83
2018-09-19T03:30:55.474Z,1010.82
2018-09-19T03:35:52.537Z,1010.82
2018-09-19T03:40:48.141Z,1010.76
2018-09-19T03:45:43.724Z,1010.78
2018-09-19T03:50:39.607Z,1010.68
2018-09-19T03:55:35.524Z,1010.75
2018-09-19T04:00:32.304Z,1010.79
2018-09-19T04:05:27.734Z,1010.81
2018-09-19T04:10:24.540Z,1010.77
2018-09-19T04:15:20.842Z,1010.81
2018-09-19T04:20:16.749Z,1010.84
2018-09-19T04:25:12.943Z,1010.89
2018-09-19T04:30:08.362Z,1010.92
2018-09-19T04:35:03.939Z,1010.96
2018-09-19T04:40:00.263Z,1010.92
2018-09-19T04:44:56.241Z,1011.00
2018-09-19T04:49:51.827Z,1010.99
2018-09-19T04:54:48.950Z,1010.98
2018-09-19T04:59:44.595Z,1010.91
2018-09-19T05:04:40.455Z,1010.87
2018-09-19T05:09:37.386Z,1010.81
2018-09-19T05:14:33.906Z,1010.93
2018-09-19T05:19:29.517Z,1010.97
2018-09-19T05:24:25.805Z,1010.97
2018-09-19T05:29:21.710Z,1011.11
2018-09-19T05:34:17.607Z,1011.14
2018-09-19T05:39:15.224Z,1011.12
2018-09-19T05:44:10.933Z,1011.28
2018-09-19T05:49:07.041Z,1011.16
2018-09-19T05:54:03.177Z,1011.19
2018-09-19T05:58:59.149Z,1011.10
2018-09-19T06:03:55.067Z,1011.03
2018-09-19T06:08:51.267Z,1011.04
2018-09-19T06:13:47.494Z,1011.00
2018-09-19T06:18:43.831Z,1010.95
2018-09-19T06:23:39.733Z,1010.94
2018-09-19T06:28:35.641Z,1010.93
2018-09-19T06:33:31.709Z,1011.03
2018-09-19T06:38:28.659Z,1010.93
2018-09-19T06:43:24.294Z,1010.98
2018-09-19T06:48:20.324Z,1011.00
2018-09-19T06:53:17.627Z,1010.89
2018-09-19T06:58:13.261Z,1010.83
2018-09-19T07:03:10.656Z,1010.75
2018-09-19T07:08:07.229Z,1010.59
2018-09-19T07:13:02.860Z,1010.59
2018-09-19T07:17:58.740Z,1010.72
2018-09-19T07:22:54.513Z,1010.83
2018-09-19T07:27:51.445Z,1010.87
2018-09-19T07:32:47.537Z,1010.83
2018-09-19T07:37:44.044Z,1010.81
2018-09-19T07:42:40.845Z,1010.77
2018-09-19T07:47:36.792Z,1010.66
2018-09-19T07:52:33.638Z,1010.77
2018-09-19T07:57:29.563Z,1010.94
2018-09-19T08:02:27.032Z,1010.94
2018-09-19T08:07:23.083Z,1011.02
2018-09-19T08:12:19.394Z,1011.08
2018-09-19T08:17:15.459Z,1011.04
2018-09-19T08:22:12.438Z,1011.09
2018-09-19T08:27:08.254Z,1011.05
2018-09-19T08:32:04.460Z,1010.90
2018-09-19T08:37:00.519Z,1010.84
2018-09-19T08:41:56.485Z,1010.98
2018-09-19T08:46:52.492Z,1010.84
2018-09-19T08:51:48.495Z,1010.92
2018-09-19T08:56:45.331Z,1010.68
2018-09-19T09:01:41.146Z,1010.65
2018-09-19T09:06:37.218Z,1010.60
2018-09-19T09:11:33.263Z,1010.57
2018-09-19T09:16:29.271Z,1010.58
2018-09-19T09:21:25.347Z,1010.55
2018-09-19T09:26:22.354Z,1010.54
2018-09-19T09:31:17.979Z,1010.51
2018-09-19T09:36:14.210Z,1010.42
2018-09-19T09:41:10.580Z,1010.38
2018-09-19T09:46:08.028Z,1010.35
2018-09-19T09:51:04.152Z,1010.32
2018-09-19T09:56:00.748Z,1010.31
2018-09-19T10:00:56.849Z,1010.23
2018-09-19T10:05:52.779Z,1010.13
2018-09-19T10:10:48.750Z,1010.00
2018-09-19T10:15:44.903Z,1010.07
2018-09-19T10:20:41.533Z,1009.93
2018-09-19T10:25:38.395Z,1009.86
2018-09-19T10:30:34.143Z,1009.73
2018-09-19T10:35:30.779Z,1009.75
2018-09-19T10:40:27.258Z,1009.86
2018-09-19T10:45:23.537Z,1009.69
2018-09-19T10:50:19.509Z,1009.84
2018-09-19T10:55:15.902Z,1009.77
2018-09-19T11:00:11.919Z,1009.84
2018-09-19T11:05:08.820Z,1009.80
2018-09-19T11:10:06.145Z,1009.74
2018-09-19T11:15:02.287Z,1009.72
2018-09-19T11:19:59.869Z,1009.66
2018-09-19T11:24:56.580Z,1009.67
2018-09-19T11:29:52.374Z,1009.80
2018-09-19T11:34:47.855Z,1009.77
2018-09-19T11:39:44.317Z,1009.89
2018-09-19T11:44:40.642Z,1010.04
2018-09-19T11:49:37.681Z,1009.93
2018-09-19T11:54:33.763Z,1009.78
2018-09-19T11:59:30.597Z,1009.89
2018-09-19T12:04:27.160Z,1009.80
2018-09-19T12:09:24.272Z,1009.66
2018-09-19T12:14:19.668Z,1009.59
2018-09-19T12:19:15.410Z,1009.64
2018-09-19T12:24:10.810Z,1009.57
2018-09-19T12:29:07.337Z,1009.62
2018-09-19T12:34:02.561Z,1009.53
2018-09-19T12:38:59.549Z,1009.54
2018-09-19T12:43:56.202Z,1009.47
2018-09-19T12:48:51.897Z,1009.43
2018-09-19T12:53:47.685Z,1009.48
2018-09-19T12:58:43.798Z,1009.34
2018-09-19T13:03:39.731Z,1009.27
2018-09-19T13:08:36.837Z,1009.37
2018-09-19T13:13:32.279Z,1009.19
2018-09-19T13:18:29.271Z,1009.16
2018-09-19T13:23:25.006Z,1009.29
2018-09-19T13:28:21.163Z,1009.20
2018-09-19T13:33:17.445Z,1009.23
2018-09-19T13:38:13.506Z,1009.05
2018-09-19T13:43:09.558Z,1009.00
2018-09-19T13:48:05.474Z,1008.94
2018-09-19T13:53:01.843Z,1008.99
2018-09-19T13:57:58.731Z,1008.92
2018-09-19T14:02:54.639Z,1008.83
2018-09-19T14:07:51.646Z,1008.87
2018-09-19T14:12:47.328Z,1008.76
2018-09-19T14:17:44.871Z,1008.81
2018-09-19T14:22:40.725Z,1008.87
2018-09-19T14:27:36.739Z,1008.62
2018-09-19T14:32:32.613Z,1008.70
2018-09-19T14:37:29.773Z,1008.70
2018-09-19T14:42:25.634Z,1008.58
2018-09-19T14:47:22.751Z,1008.68
2018-09-19T14:52:20.030Z,1008.68
2018-09-19T14:57:15.521Z,1008.69
2018-09-19T15:02:11.559Z,1008.59
2018-09-19T15:07:08.566Z,1008.61
2018-09-19T15:12:04.298Z,1008.61
2018-09-19T15:17:00.252Z,1008.64
2018-09-19T15:21:56.264Z,1008.53
2018-09-19T15:26:52.758Z,1008.56
2018-09-19T15:31:49.045Z,1008.54
2018-09-19T15:36:45.083Z,1008.74
2018-09-19T15:41:40.961Z,1008.79
2018-09-19T15:46:38.248Z,1008.84
2018-09-19T15:51:34.045Z,1008.88
2018-09-19T15:56:30.155Z,1008.74
2018-09-19T16:01:26.346Z,1008.80
2018-09-19T16:06:22.800Z,1008.79
2018-09-19T16:11:18.615Z,1008.83
2018-09-19T16:16:15.195Z,1008.79
2018-09-19T16:21:11.975Z,1008.88
2018-09-19T16:26:07.676Z,1008.92
2018-09-19T16:31:03.695Z,1008.88
2018-09-19T16:35:59.695Z,1008.94
2018-09-19T16:40:55.606Z,1009.07
2018-09-19T16:45:51.568Z,1009.10
2018-09-19T16:50:47.760Z,1009.14
2018-09-19T16:55:43.539Z,1009.13
2018-09-19T17:00:39.481Z,1009.12
2018-09-19T17:05:36.744Z,1009.15
2018-09-19T17:15:32.924Z,1009.21
2018-09-19T17:20:29.644Z,1009.23
2018-09-19T17:25:25.035Z,1009.34
2018-09-19T17:30:20.979Z,1009.40
2018-09-19T17:35:16.762Z,1009.44
2018-09-19T17:40:12.651Z,1009.49
2018-09-19T17:45:08.427Z,1009.58
2018-09-19T17:50:05.682Z,1009.64
2018-09-19T17:55:02.151Z,1009.68
2018-09-19T17:59:57.688Z,1009.79
2018-09-19T18:04:53.457Z,1009.79
2018-09-19T18:09:49.257Z,1009.80
2018-09-19T18:14:45.460Z,1009.89
2018-09-19T18:19:42.427Z,1010.03
2018-09-19T18:24:38.112Z,1010.06
2018-09-19T18:29:34.997Z,1010.08
2018-09-19T18:34:31.759Z,1010.16
2018-09-19T18:39:27.397Z,1010.24
2018-09-19T18:44:23.319Z,1010.24
2018-09-19T18:49:19.133Z,1010.39
2018-09-19T18:54:15.001Z,1010.37
2018-09-19T18:59:11.228Z,1010.48
2018-09-19T19:04:07.943Z,1010.55
2018-09-19T19:09:03.969Z,1010.65
2018-09-19T19:13:59.947Z,1010.72
2018-09-19T19:18:56.685Z,1010.73
2018-09-19T19:23:52.385Z,1010.80
2018-09-19T19:28:48.565Z,1010.83
2018-09-19T19:33:44.431Z,1010.90
2018-09-19T19:38:40.243Z,1010.92
2018-09-19T19:43:36.056Z,1010.86
2018-09-19T19:48:31.949Z,1010.88
2018-09-19T19:53:27.680Z,1011.07
2018-09-19T19:58:23.696Z,1011.13
2018-09-19T20:03:20.611Z,1011.12
2018-09-19T20:08:16.199Z,1011.09
2018-09-19T20:13:12.069Z,1011.18
2018-09-19T20:18:08.151Z,1011.14
2018-09-19T20:23:04.088Z,1011.13
2018-09-19T20:27:59.959Z,1011.22
2018-09-19T20:32:55.730Z,1011.29
2018-09-19T20:37:51.769Z,1011.32
2018-09-19T20:42:48.527Z,1011.32
2018-09-19T20:47:44.225Z,1011.29
2018-09-19T20:52:40.170Z,1011.32
2018-09-19T20:57:35.761Z,1011.28
2018-09-19T21:02:32.595Z,1011.39
2018-09-19T21:07:28.871Z,1011.51
2018-09-19T21:12:24.712Z,1011.43
2018-09-19T21:17:20.541Z,1011.43
2018-09-19T21:22:16.663Z,1011.48
2018-09-19T21:27:12.886Z,1011.47
2018-09-19T21:32:08.899Z,1011.48
2018-09-19T21:37:04.853Z,1011.53
2018-09-19T21:42:01.165Z,1011.56
2018-09-19T21:46:57.813Z,1011.67
2018-09-19T21:51:53.468Z,1011.62
2018-09-19T21:56:50.068Z,1011.72
2018-09-19T22:01:45.943Z,1011.62
2018-09-19T22:06:41.809Z,1011.67
2018-09-19T22:11:38.737Z,1011.64
2018-09-19T22:16:35.918Z,1011.72
2018-09-19T22:21:31.640Z,1011.63
2018-09-19T22:26:28.759Z,1011.64
2018-09-19T22:31:25.314Z,1011.58
2018-09-19T22:36:21.762Z,1011.63
2018-09-19T22:41:18.306Z,1011.65
2018-09-19T22:46:13.831Z,1011.65
2018-09-19T22:51:10.830Z,1011.60
2018-09-19T22:56:06.489Z,1011.57
2018-09-19T23:01:02.387Z,1011.60
2018-09-19T23:05:58.798Z,1011.45
2018-09-19T23:10:55.432Z,1011.50
2018-09-19T23:15:50.984Z,1011.51
2018-09-19T23:20:48.006Z,1011.49
2018-09-19T23:25:43.599Z,1011.54
2018-09-19T23:30:40.503Z,1011.50
2018-09-19T23:35:36.084Z,1011.45
2018-09-19T23:40:31.952Z,1011.47
2018-09-19T23:45:27.922Z,1011.46
2018-09-19T23:50:24.207Z,1011.30
2018-09-19T23:55:21.079Z,1011.47
